Son Servera, Spain
Current Conditions -  °F | °C
As of 3:00 PM on Thursday 27 Nov 2014 (Local Time) from LEPA Reporting Station
Scattered Clouds Scattered Clouds  
Wind Chill: 68°   Ceiling: Unl
Heat Index: 68°   Visibility: 6mi
Dew Point: 61°   Wind: 10mph
Humidity: 78%   Direction: 150°SSE
Pressure: 29.65"   Gusts: NA
Location:  39.62°N, 3.36°E
Report Text: LEPA 271400Z 15009KT 110V190 9999 FEW015 SCT022 20/16 Q1004 NOSIG
Loading
Personal Weather Stations






























Interactive Weather Map New forecast layout! Learn more

10-Day Weather Forecast

Advertisements
Track Severe Weather on mobile